createdAt,value
2023-02-17T00:00:57.521Z,8.09
2023-02-17T00:03:24.928Z,8.05
2023-02-17T00:05:52.329Z,8.03
2023-02-17T00:08:19.562Z,8.09
2023-02-17T00:10:58.045Z,7.96
2023-02-17T00:13:25.869Z,7.87
2023-02-17T00:15:53.319Z,7.86
2023-02-17T00:18:21.727Z,7.82
2023-02-17T00:20:49.205Z,7.80
2023-02-17T00:23:16.436Z,7.81
2023-02-17T00:25:43.893Z,7.76
2023-02-17T00:28:11.086Z,7.70
2023-02-17T00:30:39.226Z,7.69
2023-02-17T00:33:06.355Z,7.64
2023-02-17T00:35:33.606Z,7.57
2023-02-17T00:38:00.889Z,7.58
2023-02-17T00:40:28.023Z,7.64
2023-02-17T00:42:55.193Z,7.63
2023-02-17T00:45:22.316Z,7.65
2023-02-17T00:47:49.517Z,7.59
2023-02-17T00:50:16.772Z,7.61
2023-02-17T00:52:43.925Z,7.60
2023-02-17T00:55:11.096Z,7.65
2023-02-17T00:57:38.271Z,7.64
2023-02-17T01:00:06.257Z,7.66
2023-02-17T01:02:33.480Z,7.73
2023-02-17T01:05:00.679Z,7.81
2023-02-17T01:07:27.881Z,7.80
2023-02-17T01:09:55.016Z,7.70
2023-02-17T01:12:22.206Z,7.70
2023-02-17T01:14:49.589Z,7.64
2023-02-17T01:17:16.728Z,7.58
2023-02-17T01:19:43.945Z,7.61
2023-02-17T01:22:11.118Z,7.66
2023-02-17T01:24:39.354Z,7.61
2023-02-17T01:27:06.702Z,7.66
2023-02-17T01:29:33.900Z,7.66
2023-02-17T01:32:01.053Z,7.66
2023-02-17T01:34:28.242Z,7.61
2023-02-17T01:36:55.543Z,7.56
2023-02-17T01:39:22.921Z,7.56
2023-02-17T01:41:50.638Z,7.53
2023-02-17T01:44:23.504Z,7.54
2023-02-17T01:46:53.218Z,7.58
2023-02-17T01:49:27.784Z,7.59
2023-02-17T01:52:27.542Z,7.54
2023-02-17T01:54:59.276Z,7.49
2023-02-17T01:57:29.254Z,7.55
2023-02-17T01:59:56.879Z,7.53
2023-02-17T02:02:24.757Z,7.46
2023-02-17T02:04:53.570Z,7.48
2023-02-17T02:07:25.142Z,7.53
2023-02-17T02:09:56.120Z,7.58
2023-02-17T02:12:35.696Z,7.51
2023-02-17T02:15:13.161Z,7.41
2023-02-17T02:18:18.712Z,7.38
2023-02-17T02:21:36.029Z,7.40
2023-02-17T02:24:15.707Z,7.37
2023-02-17T02:26:48.912Z,7.40
2023-02-17T02:29:34.679Z,7.32
2023-02-17T02:32:04.484Z,7.19
2023-02-17T02:34:38.153Z,7.16
2023-02-17T02:37:18.389Z,7.19
2023-02-17T02:39:48.956Z,7.17
2023-02-17T02:42:22.033Z,7.16
2023-02-17T02:44:49.477Z,7.23
2023-02-17T02:47:40.821Z,7.29
2023-02-17T02:50:10.567Z,7.24
2023-02-17T02:52:48.679Z,7.22
2023-02-17T02:55:20.513Z,7.17
2023-02-17T02:58:00.812Z,7.06
2023-02-17T03:00:28.006Z,7.04
2023-02-17T03:03:02.225Z,7.07
2023-02-17T03:05:37.108Z,7.11
2023-02-17T03:08:10.864Z,7.16
2023-02-17T03:10:48.692Z,7.13
2023-02-17T03:13:17.550Z,7.03
2023-02-17T03:15:45.501Z,7.04
2023-02-17T03:18:12.815Z,7.00
2023-02-17T03:21:07.202Z,6.97
2023-02-17T03:23:34.571Z,6.97
2023-02-17T03:26:01.925Z,7.02
2023-02-17T03:28:29.359Z,7.01
2023-02-17T03:30:56.584Z,7.00
2023-02-17T03:33:24.005Z,6.93
2023-02-17T03:35:51.255Z,6.91
2023-02-17T03:38:18.494Z,6.96
2023-02-17T03:40:45.700Z,6.95
2023-02-17T03:43:12.940Z,6.98
2023-02-17T03:45:40.244Z,6.93
2023-02-17T03:48:07.496Z,6.94
2023-02-17T03:50:34.779Z,7.01
2023-02-17T03:53:01.946Z,6.99
2023-02-17T03:55:29.178Z,7.00
2023-02-17T03:57:56.449Z,6.99
2023-02-17T04:00:24.186Z,6.98
2023-02-17T04:02:51.509Z,6.97
2023-02-17T04:05:18.916Z,6.97
2023-02-17T04:07:46.205Z,6.99
2023-02-17T04:10:13.534Z,6.97
2023-02-17T04:12:40.823Z,6.95
2023-02-17T04:15:09.463Z,6.95
2023-02-17T04:17:38.023Z,6.92
2023-02-17T04:20:07.339Z,6.96
2023-02-17T04:22:34.582Z,6.96
2023-02-17T04:25:01.866Z,6.95
2023-02-17T04:27:29.150Z,6.91
2023-02-17T04:29:56.417Z,6.96
2023-02-17T04:32:23.674Z,6.99
2023-02-17T04:34:50.865Z,7.02
2023-02-17T04:37:18.140Z,7.05
2023-02-17T04:39:45.368Z,7.10
2023-02-17T04:42:12.680Z,7.05
2023-02-17T04:44:39.967Z,7.03
2023-02-17T04:47:07.336Z,7.02
2023-02-17T04:49:34.714Z,7.02
2023-02-17T04:52:02.120Z,6.97
2023-02-17T04:54:29.353Z,7.03
2023-02-17T04:56:56.722Z,7.04
2023-02-17T04:59:25.587Z,7.07
2023-02-17T05:01:53.044Z,7.05
2023-02-17T05:04:20.663Z,7.10
2023-02-17T05:06:47.952Z,7.08
2023-02-17T05:09:15.217Z,7.06
2023-02-17T05:11:42.549Z,7.08
2023-02-17T05:14:09.895Z,7.08
2023-02-17T05:16:37.129Z,7.06
2023-02-17T05:19:04.739Z,7.07
2023-02-17T05:21:32.755Z,7.16
2023-02-17T05:24:00.133Z,7.14
2023-02-17T05:26:27.491Z,7.17
2023-02-17T05:28:55.062Z,7.15
2023-02-17T05:31:22.397Z,7.15
2023-02-17T05:33:50.080Z,7.18
2023-02-17T05:36:17.410Z,7.16
2023-02-17T05:38:49.071Z,7.15
2023-02-17T05:41:16.957Z,7.19
2023-02-17T05:43:44.269Z,7.19
2023-02-17T05:46:11.924Z,7.22
2023-02-17T05:48:39.239Z,7.22
2023-02-17T05:51:06.817Z,7.23
2023-02-17T05:53:34.093Z,7.20
2023-02-17T05:56:01.823Z,7.19
2023-02-17T05:58:37.063Z,7.15
2023-02-17T06:01:09.351Z,7.15
2023-02-17T06:03:40.092Z,7.16
2023-02-17T06:06:08.137Z,7.16
2023-02-17T06:08:36.671Z,7.17
2023-02-17T06:11:04.296Z,7.24
2023-02-17T06:13:31.660Z,7.26
2023-02-17T06:15:59.263Z,7.28
2023-02-17T06:18:26.733Z,7.31
2023-02-17T06:20:57.579Z,7.29
2023-02-17T06:23:25.439Z,7.26
2023-02-17T06:25:53.294Z,7.28
2023-02-17T06:28:20.638Z,7.33
2023-02-17T06:30:47.921Z,7.37
2023-02-17T06:33:15.885Z,7.32
2023-02-17T06:35:44.632Z,7.29
2023-02-17T06:38:11.855Z,7.29
2023-02-17T06:40:39.143Z,7.32
2023-02-17T06:43:06.673Z,7.29
2023-02-17T06:45:34.088Z,7.34
2023-02-17T06:48:01.511Z,7.34
2023-02-17T06:50:28.801Z,7.38
2023-02-17T06:52:56.485Z,7.44
2023-02-17T06:55:23.968Z,7.42
2023-02-17T06:57:51.293Z,7.48
2023-02-17T07:00:19.271Z,7.54
2023-02-17T07:02:47.183Z,7.54
2023-02-17T07:05:14.731Z,7.57
2023-02-17T07:07:42.084Z,7.60
2023-02-17T07:10:09.753Z,7.61
2023-02-17T07:12:37.160Z,7.57
2023-02-17T07:15:04.841Z,7.63
2023-02-17T07:17:32.194Z,7.64
2023-02-17T07:19:59.580Z,7.72
2023-02-17T07:22:27.079Z,7.69
2023-02-17T07:24:54.444Z,7.70
2023-02-17T07:27:22.002Z,7.74
2023-02-17T07:29:49.284Z,7.75
2023-02-17T07:32:16.551Z,7.75
2023-02-17T07:34:44.277Z,7.79
2023-02-17T07:37:11.523Z,7.87
2023-02-17T07:39:39.012Z,7.87
2023-02-17T07:42:06.277Z,7.89
2023-02-17T07:44:33.661Z,7.95
2023-02-17T07:47:00.873Z,7.91
2023-02-17T07:49:28.312Z,7.89
2023-02-17T07:51:58.068Z,7.97
2023-02-17T07:54:25.306Z,8.02
2023-02-17T07:56:52.548Z,8.05
2023-02-17T07:59:20.036Z,8.08
2023-02-17T08:01:47.516Z,8.11
2023-02-17T08:04:14.813Z,8.13
2023-02-17T08:06:42.027Z,8.12
2023-02-17T08:09:30.974Z,8.13
2023-02-17T08:12:16.712Z,8.17
2023-02-17T08:14:44.029Z,8.19
2023-02-17T08:17:11.369Z,8.26
2023-02-17T08:19:47.940Z,8.28
2023-02-17T08:22:18.247Z,8.31
2023-02-17T08:24:46.009Z,8.32
2023-02-17T08:27:14.788Z,8.33
2023-02-17T08:29:42.200Z,8.40
2023-02-17T08:32:09.609Z,8.41
2023-02-17T08:34:37.329Z,8.42
2023-02-17T08:37:06.221Z,8.45
2023-02-17T08:39:35.027Z,8.47
2023-02-17T08:42:03.301Z,8.47
2023-02-17T08:44:30.843Z,8.51
2023-02-17T08:46:58.131Z,8.52
2023-02-17T08:49:28.474Z,8.50
2023-02-17T08:51:55.810Z,8.51
2023-02-17T08:54:23.078Z,8.59
2023-02-17T08:56:50.368Z,8.58
2023-02-17T08:59:17.573Z,8.60
2023-02-17T09:01:44.925Z,8.59
2023-02-17T09:04:13.654Z,8.60
2023-02-17T09:06:43.984Z,8.62
2023-02-17T09:09:13.247Z,8.65
2023-02-17T09:11:40.749Z,8.65
2023-02-17T09:14:08.697Z,8.68
2023-02-17T09:16:36.199Z,8.69
2023-02-17T09:19:03.863Z,8.73
2023-02-17T09:21:31.241Z,8.69
2023-02-17T09:23:58.603Z,8.69
2023-02-17T09:26:25.932Z,8.70
2023-02-17T09:28:53.168Z,8.73
2023-02-17T09:31:22.938Z,8.71
2023-02-17T09:33:51.243Z,8.79
2023-02-17T09:36:21.439Z,8.78
2023-02-17T09:38:49.442Z,8.74
2023-02-17T09:41:22.205Z,8.73
2023-02-17T09:43:50.712Z,8.74
2023-02-17T09:46:28.839Z,8.70
2023-02-17T09:48:59.644Z,8.68
2023-02-17T09:51:36.820Z,8.68
2023-02-17T09:54:17.470Z,8.67
2023-02-17T09:56:48.406Z,8.65
2023-02-17T09:59:20.788Z,8.68
2023-02-17T10:01:49.109Z,8.72
2023-02-17T10:04:22.829Z,8.75
2023-02-17T10:06:55.054Z,8.67
2023-02-17T10:09:23.734Z,8.74
2023-02-17T10:11:52.913Z,8.76
2023-02-17T10:14:40.789Z,8.72
2023-02-17T10:17:14.497Z,8.68
2023-02-17T10:19:49.386Z,8.75
2023-02-17T10:22:21.043Z,8.79
2023-02-17T10:24:48.517Z,8.81
2023-02-17T10:27:28.526Z,8.76
2023-02-17T10:30:21.462Z,8.79
2023-02-17T10:33:02.824Z,8.76
2023-02-17T10:35:52.498Z,8.77
2023-02-17T10:38:41.633Z,8.75
2023-02-17T10:41:11.136Z,8.75
2023-02-17T10:43:38.421Z,8.73
2023-02-17T10:46:07.715Z,8.69
2023-02-17T10:48:39.021Z,8.75
2023-02-17T10:51:06.931Z,8.79
2023-02-17T10:53:39.327Z,8.79
2023-02-17T10:56:14.403Z,8.84
2023-02-17T10:58:59.923Z,8.82
2023-02-17T11:01:28.099Z,8.87
2023-02-17T11:04:06.949Z,8.88
2023-02-17T11:06:41.857Z,8.91
2023-02-17T11:09:28.480Z,8.96
2023-02-17T11:12:13.894Z,9.03
2023-02-17T11:14:46.458Z,9.07
2023-02-17T11:17:39.879Z,9.08
2023-02-17T11:20:15.275Z,9.13
2023-02-17T11:28:30.411Z,9.16
2023-02-17T11:31:00.286Z,9.18
2023-02-17T11:33:52.446Z,9.19
2023-02-17T11:36:37.583Z,9.21
2023-02-17T11:39:18.461Z,9.21
2023-02-17T11:41:45.665Z,9.26
2023-02-17T11:44:22.989Z,9.33
2023-02-17T11:47:09.823Z,9.36
2023-02-17T11:49:55.450Z,9.42
2023-02-17T11:52:44.371Z,9.43
2023-02-17T11:55:22.350Z,9.48
2023-02-17T11:58:28.234Z,9.53
2023-02-17T12:01:09.625Z,9.57
2023-02-17T12:03:52.163Z,9.63
2023-02-17T12:06:42.878Z,9.72
2023-02-17T12:09:48.739Z,9.78
2023-02-17T12:12:19.054Z,9.83
2023-02-17T12:14:46.216Z,9.86
2023-02-17T12:17:34.113Z,9.86
2023-02-17T12:20:28.632Z,9.95
2023-02-17T12:23:15.180Z,9.93
2023-02-17T12:25:53.426Z,10.02
2023-02-17T12:28:39.330Z,10.07
2023-02-17T12:31:27.722Z,10.12
2023-02-17T12:34:05.678Z,10.20
2023-02-17T12:36:38.435Z,10.23
2023-02-17T12:39:17.536Z,10.33
2023-02-17T12:42:15.880Z,10.38
2023-02-17T12:44:49.982Z,10.41
2023-02-17T12:47:46.603Z,10.42
2023-02-17T12:50:27.594Z,10.53
2023-02-17T12:52:57.683Z,10.54
2023-02-17T12:55:35.859Z,10.59
2023-02-17T12:58:13.411Z,10.66
2023-02-17T13:00:49.719Z,10.69
2023-02-17T13:03:17.794Z,10.70
2023-02-17T13:06:00.778Z,10.72
2023-02-17T13:08:42.026Z,10.77
2023-02-17T13:11:25.832Z,10.80
2023-02-17T13:13:53.041Z,10.84
2023-02-17T13:16:20.447Z,10.86
2023-02-17T13:18:50.610Z,10.94
2023-02-17T13:21:22.656Z,11.00
2023-02-17T13:24:15.091Z,10.99
2023-02-17T13:26:44.211Z,11.04
2023-02-17T13:29:11.380Z,11.14
2023-02-17T13:31:47.333Z,11.26
2023-02-17T13:34:25.519Z,11.25
2023-02-17T13:36:52.828Z,11.26
2023-02-17T13:39:25.933Z,11.28
2023-02-17T13:41:55.905Z,11.31
2023-02-17T13:44:27.932Z,11.36
2023-02-17T13:47:11.285Z,11.43
2023-02-17T13:49:38.697Z,11.49
2023-02-17T13:52:10.464Z,11.50
2023-02-17T13:54:37.681Z,11.53
2023-02-17T13:57:04.862Z,11.53
2023-02-17T13:59:37.033Z,11.58
2023-02-17T14:02:19.414Z,11.57
2023-02-17T14:04:55.130Z,11.65
2023-02-17T14:07:22.631Z,11.73
2023-02-17T14:09:54.448Z,11.76
2023-02-17T14:12:24.256Z,11.75
2023-02-17T14:14:51.576Z,11.77
2023-02-17T14:17:32.968Z,11.77
2023-02-17T14:20:00.834Z,11.82
2023-02-17T14:22:34.135Z,11.85
2023-02-17T14:25:11.616Z,11.82
2023-02-17T14:27:47.949Z,11.87
2023-02-17T14:30:28.783Z,11.90
2023-02-17T14:33:02.291Z,11.88
2023-02-17T14:35:30.106Z,11.87
2023-02-17T14:38:27.847Z,11.86
2023-02-17T14:41:02.712Z,11.84
2023-02-17T14:43:30.498Z,11.81
2023-02-17T14:45:58.040Z,11.89
2023-02-17T14:48:27.687Z,11.88
2023-02-17T14:50:57.332Z,11.89
2023-02-17T14:53:28.417Z,11.87
2023-02-17T14:56:26.142Z,11.72
2023-02-17T14:58:53.918Z,11.65
2023-02-17T15:01:23.243Z,11.54
2023-02-17T15:03:50.677Z,11.44
2023-02-17T15:06:23.047Z,11.32
2023-02-17T15:08:53.522Z,11.34
2023-02-17T15:11:33.708Z,11.28
2023-02-17T15:14:02.913Z,11.21
2023-02-17T15:16:30.673Z,11.15
2023-02-17T15:19:01.130Z,11.10
2023-02-17T15:21:31.665Z,11.13
2023-02-17T15:24:00.195Z,11.09
2023-02-17T15:26:30.451Z,11.08
2023-02-17T15:29:02.836Z,11.10
2023-02-17T15:31:34.236Z,11.08
2023-02-17T15:34:06.095Z,11.00
2023-02-17T15:36:33.289Z,11.00
2023-02-17T15:39:00.578Z,10.94
2023-02-17T15:41:29.900Z,11.00
2023-02-17T15:43:58.748Z,10.98
2023-02-17T15:46:31.612Z,11.00
2023-02-17T15:48:59.122Z,10.95
2023-02-17T15:51:26.507Z,10.94
2023-02-17T15:53:53.763Z,10.92
2023-02-17T15:56:30.542Z,10.94
2023-02-17T15:58:59.320Z,10.96
2023-02-17T16:01:31.744Z,10.95
2023-02-17T16:03:59.482Z,10.98
2023-02-17T16:06:27.466Z,10.96
2023-02-17T16:08:55.325Z,10.95
2023-02-17T16:11:22.971Z,10.93
2023-02-17T16:13:50.609Z,10.95
2023-02-17T16:16:24.803Z,10.99
2023-02-17T16:18:52.236Z,10.96
2023-02-17T16:21:19.519Z,10.99
2023-02-17T16:23:46.770Z,10.98
2023-02-17T16:26:25.933Z,11.00
2023-02-17T16:28:53.402Z,11.02
2023-02-17T16:31:20.715Z,11.05
2023-02-17T16:33:48.206Z,11.05
2023-02-17T16:36:17.715Z,11.03
2023-02-17T16:38:50.543Z,11.09
2023-02-17T16:41:20.260Z,11.08
2023-02-17T16:43:47.790Z,11.14
2023-02-17T16:46:36.364Z,11.14
2023-02-17T16:49:11.668Z,11.21
2023-02-17T16:51:43.287Z,11.22
2023-02-17T16:54:16.295Z,11.24
2023-02-17T16:56:48.865Z,11.31
2023-02-17T16:59:21.947Z,11.36
2023-02-17T17:01:50.931Z,11.34
2023-02-17T17:04:18.319Z,11.31
2023-02-17T17:06:51.782Z,11.36
2023-02-17T17:09:24.351Z,11.38
2023-02-17T17:11:51.732Z,11.33
2023-02-17T17:14:21.528Z,11.25
2023-02-17T17:16:55.797Z,11.28
2023-02-17T17:19:23.582Z,11.25
2023-02-17T17:21:55.851Z,11.26
2023-02-17T17:24:26.099Z,11.21
2023-02-17T17:26:55.943Z,11.24
2023-02-17T17:29:23.144Z,11.22
2023-02-17T17:31:51.106Z,11.20
2023-02-17T17:34:18.387Z,11.18
2023-02-17T17:36:51.713Z,11.17
2023-02-17T17:39:21.264Z,11.16
2023-02-17T17:41:49.516Z,11.22
2023-02-17T17:44:16.819Z,11.21
2023-02-17T17:46:44.419Z,11.21
2023-02-17T17:49:14.329Z,11.24
2023-02-17T17:51:41.884Z,11.36
2023-02-17T17:54:09.721Z,11.27
2023-02-17T17:56:42.488Z,11.27
2023-02-17T17:59:11.547Z,11.29
2023-02-17T18:01:39.033Z,11.25
2023-02-17T18:04:08.020Z,11.25
2023-02-17T18:06:41.825Z,11.19
2023-02-17T18:09:25.730Z,10.99
2023-02-17T18:12:00.390Z,10.82
2023-02-17T18:14:27.636Z,10.62
2023-02-17T18:16:54.868Z,10.52
2023-02-17T18:19:22.786Z,10.43
2023-02-17T18:21:49.998Z,10.35
2023-02-17T18:24:17.358Z,10.30
2023-02-17T18:26:44.649Z,10.25
2023-02-17T18:29:11.901Z,10.26
2023-02-17T18:31:39.172Z,10.28
2023-02-17T18:34:06.530Z,10.25
2023-02-17T18:36:33.768Z,10.22
2023-02-17T18:39:01.027Z,10.21
2023-02-17T18:41:30.809Z,10.14
2023-02-17T18:43:59.439Z,10.13
2023-02-17T18:46:30.536Z,10.12
2023-02-17T18:48:57.799Z,10.17
2023-02-17T18:51:27.595Z,10.15
2023-02-17T18:53:56.597Z,10.11
2023-02-17T18:56:27.078Z,10.13
2023-02-17T18:58:57.607Z,10.10
2023-02-17T19:01:33.828Z,10.16
2023-02-17T19:04:01.520Z,10.07
2023-02-17T19:06:33.632Z,10.10
2023-02-17T19:09:04.168Z,10.08
2023-02-17T19:11:32.292Z,9.99
2023-02-17T19:14:04.996Z,9.93
2023-02-17T19:16:35.638Z,9.96
2023-02-17T19:19:03.440Z,9.98
2023-02-17T19:21:30.782Z,9.91
2023-02-17T19:23:58.011Z,9.84
2023-02-17T19:26:28.610Z,9.81
2023-02-17T19:28:55.871Z,9.68
2023-02-17T19:31:23.349Z,9.66
2023-02-17T19:33:50.711Z,9.58
2023-02-17T19:36:20.347Z,9.49
2023-02-17T19:38:48.741Z,9.43
2023-02-17T19:41:17.605Z,9.35
2023-02-17T19:43:45.663Z,9.28
2023-02-17T19:46:18.373Z,9.28
2023-02-17T19:48:46.188Z,9.21
2023-02-17T19:51:16.567Z,9.10
2023-02-17T19:53:44.258Z,9.15
2023-02-17T19:56:14.516Z,9.08
2023-02-17T19:58:43.369Z,8.98
2023-02-17T20:01:16.844Z,8.96
2023-02-17T20:03:44.887Z,8.94
2023-02-17T20:06:21.809Z,8.90
2023-02-17T20:08:59.304Z,8.84
2023-02-17T20:11:30.262Z,8.82
2023-02-17T20:14:04.871Z,8.78
2023-02-17T20:16:33.032Z,8.74
2023-02-17T20:19:01.515Z,8.75
2023-02-17T20:21:31.394Z,8.72
2023-02-17T20:23:59.148Z,8.57
2023-02-17T20:26:29.519Z,8.56
2023-02-17T20:28:58.052Z,8.47
2023-02-17T20:31:28.471Z,8.43
2023-02-17T20:33:55.946Z,8.42
2023-02-17T20:36:23.724Z,8.39
2023-02-17T20:38:50.990Z,8.36
2023-02-17T20:41:31.982Z,8.38
2023-02-17T20:44:02.908Z,8.29
2023-02-17T20:46:31.088Z,8.28
2023-02-17T20:48:58.880Z,8.24
2023-02-17T20:51:26.563Z,8.20
2023-02-17T20:54:03.649Z,8.15
2023-02-17T20:56:39.852Z,8.08
2023-02-17T20:59:10.356Z,8.07
2023-02-17T21:01:37.932Z,8.07
2023-02-17T21:04:09.109Z,8.00
2023-02-17T21:06:41.449Z,8.01
2023-02-17T21:09:17.357Z,7.95
2023-02-17T21:11:45.536Z,7.91
2023-02-17T21:14:13.288Z,7.91
2023-02-17T21:16:40.958Z,7.94
2023-02-17T21:19:09.292Z,7.89
2023-02-17T21:21:36.869Z,7.85
2023-02-17T21:27:08.002Z,7.81
2023-02-17T21:29:36.644Z,7.79
2023-02-17T21:32:06.991Z,7.72
2023-02-17T21:34:38.412Z,7.65
2023-02-17T21:37:08.326Z,7.66
2023-02-17T21:39:36.375Z,7.70
2023-02-17T21:42:04.203Z,7.59
2023-02-17T21:44:50.121Z,7.57
2023-02-17T21:47:18.095Z,7.51
2023-02-17T21:49:45.506Z,7.50
2023-02-17T21:52:13.483Z,7.55
2023-02-17T21:54:41.022Z,7.54
2023-02-17T21:57:08.650Z,7.50
2023-02-17T21:59:35.892Z,7.44
2023-02-17T22:02:03.292Z,7.46
2023-02-17T22:04:33.579Z,7.45
2023-02-17T22:07:00.966Z,7.44
2023-02-17T22:09:28.252Z,7.38
2023-02-17T22:11:55.687Z,7.39
2023-02-17T22:14:23.622Z,7.45
2023-02-17T22:16:51.600Z,7.41
2023-02-17T22:19:22.813Z,7.37
2023-02-17T22:21:51.084Z,7.43
2023-02-17T22:24:20.725Z,7.42
2023-02-17T22:26:49.094Z,7.42
2023-02-17T22:29:16.747Z,7.33
2023-02-17T22:31:47.481Z,7.32
2023-02-17T22:34:15.498Z,7.27
2023-02-17T22:36:42.712Z,7.25
2023-02-17T22:39:13.739Z,7.23
2023-02-17T22:41:40.926Z,7.25
2023-02-17T22:44:10.750Z,7.17
2023-02-17T22:46:38.113Z,7.20
2023-02-17T22:49:08.308Z,7.20
2023-02-17T22:51:43.399Z,7.13
2023-02-17T22:54:13.633Z,7.08
2023-02-17T22:56:40.882Z,7.07
2023-02-17T22:59:08.059Z,7.04
2023-02-17T23:01:38.111Z,7.03
2023-02-17T23:04:06.874Z,7.04
2023-02-17T23:06:36.384Z,6.99
2023-02-17T23:09:04.854Z,6.97
2023-02-17T23:11:50.259Z,7.01
2023-02-17T23:14:28.115Z,6.99
2023-02-17T23:16:59.992Z,6.95
2023-02-17T23:19:28.231Z,6.91
2023-02-17T23:21:58.011Z,6.88
2023-02-17T23:24:26.672Z,6.87
2023-02-17T23:26:55.684Z,6.86
2023-02-17T23:29:23.478Z,6.84
2023-02-17T23:31:50.836Z,6.78
2023-02-17T23:34:18.275Z,6.74
2023-02-17T23:36:46.387Z,6.73
2023-02-17T23:39:14.698Z,6.66
2023-02-17T23:41:41.940Z,6.66
2023-02-17T23:44:10.883Z,6.69
2023-02-17T23:46:38.355Z,6.61
2023-02-17T23:49:06.102Z,6.62
2023-02-17T23:51:33.804Z,6.56
2023-02-17T23:54:01.397Z,6.54
2023-02-17T23:56:32.101Z,6.53
2023-02-17T23:58:59.875Z,6.54
